createdAt,value
2023-04-26T00:00:01.540Z,100671.97
2023-04-26T00:02:29.703Z,100676.34
2023-04-26T00:04:58.921Z,100678.69
2023-04-26T00:07:26.919Z,100685.25
2023-04-26T00:09:54.468Z,100686.16
2023-04-26T00:12:22.249Z,100682.25
2023-04-26T00:14:49.864Z,100680.59
2023-04-26T00:17:17.347Z,100686.16
2023-04-26T00:19:45.284Z,100691.09
2023-04-26T00:22:13.242Z,100697.22
2023-04-26T00:24:42.024Z,100695.91
2023-04-26T00:27:10.713Z,100697.94
2023-04-26T00:29:38.214Z,100691.50
2023-04-26T00:32:05.966Z,100699.41
2023-04-26T00:34:37.395Z,100698.47
2023-04-26T00:37:06.017Z,100695.34
2023-04-26T00:39:34.525Z,100693.19
2023-04-26T00:42:02.080Z,100696.34
2023-04-26T00:44:29.569Z,100691.72
2023-04-26T00:46:57.094Z,100693.03
2023-04-26T00:49:26.502Z,100697.09
2023-04-26T00:51:54.283Z,100686.25
2023-04-26T00:54:22.082Z,100690.03
2023-04-26T00:56:52.247Z,100692.34
2023-04-26T00:59:20.853Z,100687.31
2023-04-26T01:01:49.253Z,100683.38
2023-04-26T01:04:18.112Z,100689.97
2023-04-26T01:06:46.692Z,100684.94
2023-04-26T01:09:15.836Z,100685.94
2023-04-26T01:11:44.726Z,100678.25
2023-04-26T01:14:13.204Z,100683.56
2023-04-26T01:16:41.082Z,100681.94
2023-04-26T01:19:15.460Z,100681.50
2023-04-26T01:21:43.117Z,100678.63
2023-04-26T01:24:14.222Z,100671.34
2023-04-26T01:26:46.680Z,100677.19
2023-04-26T01:29:21.740Z,100678.38
2023-04-26T01:31:49.333Z,100676.53
2023-04-26T01:34:16.779Z,100684.44
2023-04-26T01:36:44.262Z,100670.59
2023-04-26T01:39:11.964Z,100671.50
2023-04-26T01:41:39.592Z,100664.47
2023-04-26T01:44:07.268Z,100677.59
2023-04-26T01:46:35.134Z,100671.38
2023-04-26T01:49:02.622Z,100667.19
2023-04-26T01:51:30.233Z,100661.16
2023-04-26T01:53:57.559Z,100664.34
2023-04-26T01:56:25.179Z,100668.88
2023-04-26T01:58:53.083Z,100669.84
2023-04-26T02:01:20.815Z,100671.38
2023-04-26T02:03:49.517Z,100675.31
2023-04-26T02:06:17.014Z,100678.91
2023-04-26T02:08:44.998Z,100672.88
2023-04-26T02:11:12.399Z,100677.09
2023-04-26T02:13:40.482Z,100679.97
2023-04-26T02:16:08.238Z,100675.63
2023-04-26T02:18:35.929Z,100674.44
2023-04-26T02:21:03.293Z,100666.19
2023-04-26T02:23:30.690Z,100662.59
2023-04-26T02:25:58.098Z,100664.09
2023-04-26T02:28:25.789Z,100666.47
2023-04-26T02:30:53.202Z,100663.50
2023-04-26T02:33:20.629Z,100667.19
2023-04-26T02:35:48.285Z,100669.97
2023-04-26T02:38:15.767Z,100672.09
2023-04-26T02:40:43.252Z,100668.88
2023-04-26T02:43:10.594Z,100672.25
2023-04-26T02:45:43.102Z,100679.91
2023-04-26T02:48:10.488Z,100679.88
2023-04-26T02:50:38.116Z,100678.47
2023-04-26T02:53:05.478Z,100680.09
2023-04-26T02:55:33.217Z,100688.13
2023-04-26T02:58:00.758Z,100681.41
2023-04-26T03:00:28.706Z,100683.69
2023-04-26T03:02:57.217Z,100693.47
2023-04-26T03:05:25.796Z,100696.09
2023-04-26T03:07:53.192Z,100700.47
2023-04-26T03:10:20.688Z,100696.28
2023-04-26T03:12:48.287Z,100709.72
2023-04-26T03:15:15.771Z,100698.97
2023-04-26T03:17:43.458Z,100707.44
2023-04-26T03:20:11.416Z,100703.00
2023-04-26T03:22:39.257Z,100696.03
2023-04-26T03:25:07.895Z,100691.78
2023-04-26T03:27:35.808Z,100687.13
2023-04-26T03:30:04.513Z,100690.25
2023-04-26T03:32:32.594Z,100691.84
2023-04-26T03:35:00.076Z,100693.84
2023-04-26T03:37:27.564Z,100691.69
2023-04-26T03:39:54.918Z,100697.19
2023-04-26T03:42:22.364Z,100696.31
2023-04-26T03:44:49.692Z,100706.28
2023-04-26T03:47:17.118Z,100706.22
2023-04-26T03:49:44.457Z,100701.44
2023-04-26T03:52:12.032Z,100707.16
2023-04-26T03:54:39.392Z,100704.91
2023-04-26T03:57:06.798Z,100690.25
2023-04-26T03:59:34.562Z,100690.59
2023-04-26T04:02:02.072Z,100693.00
2023-04-26T04:04:29.841Z,100686.28
2023-04-26T04:06:57.542Z,100681.59
2023-04-26T04:09:25.354Z,100693.94
2023-04-26T04:11:52.950Z,100695.47
2023-04-26T04:14:20.376Z,100698.97
2023-04-26T04:16:47.770Z,100712.34
2023-04-26T04:19:15.286Z,100699.47
2023-04-26T04:21:43.417Z,100709.88
2023-04-26T04:24:11.527Z,100712.31
2023-04-26T04:26:39.302Z,100715.31
2023-04-26T04:29:09.154Z,100714.81
2023-04-26T04:31:36.997Z,100704.38
2023-04-26T04:34:04.490Z,100715.81
2023-04-26T04:36:32.632Z,100732.44
2023-04-26T04:39:00.115Z,100725.06
2023-04-26T04:41:28.043Z,100733.53
2023-04-26T04:43:55.528Z,100732.78
2023-04-26T04:46:23.232Z,100731.81
2023-04-26T04:48:50.900Z,100721.78
2023-04-26T04:51:18.528Z,100737.06
2023-04-26T04:53:46.101Z,100734.22
2023-04-26T04:56:14.628Z,100733.91
2023-04-26T04:58:42.023Z,100722.28
2023-04-26T05:01:09.989Z,100731.44
2023-04-26T05:03:37.632Z,100735.50
2023-04-26T05:06:05.949Z,100728.13
2023-04-26T05:08:33.304Z,100728.75
2023-04-26T05:11:01.184Z,100729.69
2023-04-26T05:13:28.593Z,100726.34
2023-04-26T05:15:55.992Z,100724.63
2023-04-26T05:18:23.383Z,100725.72
2023-04-26T05:20:50.988Z,100718.31
2023-04-26T05:23:18.410Z,100723.53
2023-04-26T05:25:45.799Z,100728.38
2023-04-26T05:28:14.135Z,100729.00
2023-04-26T05:30:41.531Z,100714.97
2023-04-26T05:33:09.001Z,100719.81
2023-04-26T05:35:36.552Z,100717.06
2023-04-26T05:38:04.141Z,100719.31
2023-04-26T05:40:32.467Z,100729.34
2023-04-26T05:42:59.912Z,100715.38
2023-04-26T05:45:27.322Z,100708.00
2023-04-26T05:47:54.788Z,100706.59
2023-04-26T05:50:22.181Z,100705.28
2023-04-26T05:52:49.563Z,100704.94
2023-04-26T05:55:17.098Z,100710.09
2023-04-26T05:57:44.501Z,100713.75
2023-04-26T06:00:12.669Z,100718.50
2023-04-26T06:02:40.296Z,100741.19
2023-04-26T06:05:08.764Z,100743.16
2023-04-26T06:07:36.509Z,100749.00
2023-04-26T06:10:04.029Z,100743.75
2023-04-26T06:12:31.860Z,100751.81
2023-04-26T06:14:59.210Z,100740.28
2023-04-26T06:17:26.659Z,100741.97
2023-04-26T06:19:54.146Z,100745.47
2023-04-26T06:22:21.624Z,100738.16
2023-04-26T06:24:49.017Z,100739.25
2023-04-26T06:27:16.419Z,100748.53
2023-04-26T06:29:45.218Z,100744.78
2023-04-26T06:32:12.723Z,100738.38
2023-04-26T06:34:40.311Z,100741.34
2023-04-26T06:37:07.725Z,100743.06
2023-04-26T06:39:35.460Z,100746.81
2023-04-26T06:42:02.897Z,100753.09
2023-04-26T06:44:31.058Z,100744.16
2023-04-26T06:46:58.436Z,100742.72
2023-04-26T06:49:26.820Z,100741.03
2023-04-26T06:51:54.313Z,100744.78
2023-04-26T06:54:21.839Z,100745.00
2023-04-26T06:56:49.209Z,100744.41
2023-04-26T06:59:16.533Z,100746.47
2023-04-26T07:01:43.992Z,100746.03
2023-04-26T07:04:11.772Z,100752.72
2023-04-26T07:06:39.967Z,100751.22
2023-04-26T07:09:08.864Z,100752.56
2023-04-26T07:11:36.314Z,100739.84
2023-04-26T07:14:04.908Z,100743.22
2023-04-26T07:16:32.420Z,100747.06
2023-04-26T07:18:59.859Z,100747.53
2023-04-26T07:21:27.333Z,100752.84
2023-04-26T07:23:57.462Z,100759.19
2023-04-26T07:26:29.872Z,100746.88
2023-04-26T07:28:57.370Z,100758.03
2023-04-26T07:31:24.770Z,100741.31
2023-04-26T07:33:52.501Z,100739.06
2023-04-26T07:36:20.609Z,100739.59
2023-04-26T07:38:48.940Z,100750.25
2023-04-26T07:41:17.856Z,100748.50
2023-04-26T07:43:45.493Z,100750.03
2023-04-26T07:46:12.831Z,100746.56
2023-04-26T07:48:40.239Z,100739.41
2023-04-26T07:51:11.917Z,100740.72
2023-04-26T07:53:40.242Z,100735.59
2023-04-26T07:56:08.772Z,100740.53
2023-04-26T07:58:39.731Z,100741.56
2023-04-26T08:01:07.218Z,100741.09
2023-04-26T08:03:34.942Z,100752.13
2023-04-26T08:06:02.851Z,100749.44
2023-04-26T08:08:30.586Z,100755.19
2023-04-26T08:10:57.923Z,100743.53
2023-04-26T08:13:28.564Z,100747.31
2023-04-26T08:15:56.744Z,100742.50
2023-04-26T08:18:24.131Z,100743.09
2023-04-26T08:20:52.271Z,100742.25
2023-04-26T08:23:19.735Z,100739.72
2023-04-26T08:25:47.985Z,100739.88
2023-04-26T08:28:16.264Z,100738.63
2023-04-26T08:30:43.989Z,100734.31
2023-04-26T08:33:11.601Z,100739.47
2023-04-26T08:35:39.029Z,100734.97
2023-04-26T08:38:07.411Z,100745.50
2023-04-26T08:40:36.570Z,100741.59
2023-04-26T08:43:04.122Z,100741.03
2023-04-26T08:45:33.666Z,100743.44
2023-04-26T08:48:05.872Z,100744.41
2023-04-26T08:50:34.689Z,100743.22
2023-04-26T08:53:02.067Z,100739.56
2023-04-26T08:55:30.456Z,100734.88
2023-04-26T08:57:58.588Z,100736.84
2023-04-26T09:00:27.440Z,100741.75
2023-04-26T09:02:55.944Z,100741.59
2023-04-26T09:05:27.274Z,100736.09
2023-04-26T09:07:57.771Z,100730.25
2023-04-26T09:10:25.527Z,100728.31
2023-04-26T09:12:53.806Z,100733.47
2023-04-26T09:15:23.292Z,100732.41
2023-04-26T09:17:51.984Z,100732.31
2023-04-26T09:20:27.609Z,100736.19
2023-04-26T09:23:06.415Z,100716.97
2023-04-26T09:25:35.037Z,100712.88
2023-04-26T09:28:06.762Z,100725.25
2023-04-26T09:30:42.045Z,100727.44
2023-04-26T09:33:09.671Z,100730.88
2023-04-26T09:35:44.617Z,100719.63
2023-04-26T09:38:14.587Z,100733.25
2023-04-26T09:40:48.956Z,100720.88
2023-04-26T09:43:21.450Z,100724.97
2023-04-26T09:46:07.267Z,100712.88
2023-04-26T09:48:35.359Z,100715.53
2023-04-26T09:51:14.422Z,100720.53
2023-04-26T09:53:46.554Z,100716.78
2023-04-26T09:56:14.862Z,100732.97
2023-04-26T09:58:48.055Z,100730.56
2023-04-26T10:01:18.092Z,100725.53
2023-04-26T10:03:46.692Z,100740.78
2023-04-26T10:06:14.893Z,100724.19
2023-04-26T10:08:42.763Z,100731.03
2023-04-26T10:11:14.049Z,100718.97
2023-04-26T10:13:43.036Z,100714.34
2023-04-26T10:16:10.734Z,100717.81
2023-04-26T10:18:38.269Z,100724.34
2023-04-26T10:21:37.959Z,100719.38
2023-04-26T10:24:05.853Z,100722.88
2023-04-26T10:26:49.941Z,100711.78
2023-04-26T10:29:17.686Z,100716.56
2023-04-26T10:32:06.679Z,100726.53
2023-04-26T10:34:37.213Z,100725.59
2023-04-26T10:37:16.323Z,100716.94
2023-04-26T10:39:45.523Z,100716.56
2023-04-26T10:42:33.205Z,100720.81
2023-04-26T10:45:20.854Z,100714.41
2023-04-26T10:47:48.321Z,100721.44
2023-04-26T10:50:16.308Z,100719.19
2023-04-26T10:53:03.772Z,100711.72
2023-04-26T10:55:42.857Z,100708.81
2023-04-26T10:58:33.091Z,100712.75
2023-04-26T11:01:13.628Z,100697.34
2023-04-26T11:03:41.685Z,100696.69
2023-04-26T11:06:13.755Z,100703.31
2023-04-26T11:08:41.795Z,100695.34
2023-04-26T11:11:13.506Z,100695.41
2023-04-26T11:13:42.446Z,100688.03
2023-04-26T11:16:14.704Z,100685.75
2023-04-26T11:18:46.591Z,100696.94
2023-04-26T11:21:18.091Z,100691.81
2023-04-26T11:23:55.738Z,100688.44
2023-04-26T11:26:24.818Z,100677.97
2023-04-26T11:28:52.574Z,100690.94
2023-04-26T11:31:20.157Z,100679.59
2023-04-26T11:33:49.215Z,100683.78
2023-04-26T11:36:19.794Z,100673.19
2023-04-26T11:38:47.522Z,100662.84
2023-04-26T11:41:15.080Z,100678.59
2023-04-26T11:43:42.664Z,100671.75
2023-04-26T11:46:10.333Z,100679.88
2023-04-26T11:48:39.402Z,100669.41
2023-04-26T11:51:08.459Z,100652.97
2023-04-26T11:53:37.901Z,100658.56
2023-04-26T11:56:16.491Z,100655.78
2023-04-26T11:58:48.662Z,100651.16
2023-04-26T12:01:23.916Z,100643.50
2023-04-26T12:03:53.853Z,100639.56
2023-04-26T12:06:29.408Z,100645.25
2023-04-26T12:08:57.276Z,100643.13
2023-04-26T12:11:24.814Z,100647.78
2023-04-26T12:13:52.988Z,100632.91
2023-04-26T12:16:26.764Z,100637.09
2023-04-26T12:18:57.007Z,100646.19
2023-04-26T12:21:28.139Z,100648.16
2023-04-26T12:23:57.193Z,100647.00
2023-04-26T12:26:44.832Z,100643.09
2023-04-26T12:29:12.271Z,100634.88
2023-04-26T12:31:39.845Z,100635.66
2023-04-26T12:34:08.151Z,100637.53
2023-04-26T12:36:36.812Z,100628.06
2023-04-26T12:39:05.484Z,100641.75
2023-04-26T12:41:33.004Z,100635.22
2023-04-26T12:44:00.779Z,100640.34
2023-04-26T12:46:28.176Z,100633.81
2023-04-26T12:48:55.589Z,100630.81
2023-04-26T12:51:24.178Z,100633.25
2023-04-26T12:53:51.582Z,100622.31
2023-04-26T12:56:19.324Z,100625.06
2023-04-26T12:58:46.794Z,100624.41
2023-04-26T13:01:14.479Z,100615.22
2023-04-26T13:03:43.745Z,100618.66
2023-04-26T13:06:11.873Z,100611.97
2023-04-26T13:08:39.550Z,100607.34
2023-04-26T13:11:07.206Z,100612.28
2023-04-26T13:13:43.192Z,100612.72
2023-04-26T13:16:13.196Z,100606.16
2023-04-26T13:18:41.800Z,100606.38
2023-04-26T13:21:09.170Z,100611.31
2023-04-26T13:23:36.865Z,100611.09
2023-04-26T13:26:05.070Z,100605.09
2023-04-26T13:28:32.599Z,100609.66
2023-04-26T13:31:00.762Z,100604.53
2023-04-26T13:33:28.207Z,100609.16
2023-04-26T13:35:56.591Z,100602.44
2023-04-26T13:38:24.276Z,100603.31
2023-04-26T13:40:54.080Z,100602.94
2023-04-26T13:43:22.008Z,100598.41
2023-04-26T13:45:49.375Z,100617.53
2023-04-26T13:48:17.535Z,100610.19
2023-04-26T13:50:45.232Z,100612.56
2023-04-26T13:53:12.754Z,100613.19
2023-04-26T13:55:40.184Z,100602.13
2023-04-26T13:58:07.738Z,100599.13
2023-04-26T14:00:35.177Z,100595.34
2023-04-26T14:03:03.207Z,100604.66
2023-04-26T14:05:31.359Z,100611.91
2023-04-26T14:07:59.323Z,100608.63
2023-04-26T14:10:26.814Z,100597.84
2023-04-26T14:12:56.391Z,100608.44
2023-04-26T14:15:23.821Z,100605.47
2023-04-26T14:17:51.370Z,100599.91
2023-04-26T14:20:18.919Z,100592.81
2023-04-26T14:22:46.459Z,100593.16
2023-04-26T14:25:13.962Z,100595.00
2023-04-26T14:27:41.487Z,100585.97
2023-04-26T14:30:09.535Z,100596.28
2023-04-26T14:32:37.215Z,100599.16
2023-04-26T14:35:05.105Z,100598.00
2023-04-26T14:37:32.918Z,100596.00
2023-04-26T14:40:00.804Z,100604.03
2023-04-26T14:42:28.258Z,100591.88
2023-04-26T14:44:58.888Z,100601.81
2023-04-26T14:47:26.400Z,100591.06
2023-04-26T14:49:53.830Z,100588.88
2023-04-26T14:52:21.679Z,100584.56
2023-04-26T14:54:49.114Z,100582.78
2023-04-26T14:57:16.443Z,100590.47
2023-04-26T14:59:44.035Z,100579.13
2023-04-26T15:02:11.530Z,100578.88
2023-04-26T15:04:39.456Z,100569.84
2023-04-26T15:07:07.686Z,100573.81
2023-04-26T15:09:37.188Z,100569.03
2023-04-26T15:12:05.056Z,100572.19
2023-04-26T15:14:32.758Z,100571.59
2023-04-26T15:17:00.409Z,100572.19
2023-04-26T15:19:27.973Z,100573.25
2023-04-26T15:21:55.360Z,100568.19
2023-04-26T15:24:22.778Z,100572.81
2023-04-26T15:26:50.404Z,100560.56
2023-04-26T15:29:17.835Z,100563.88
2023-04-26T15:31:45.231Z,100559.00
2023-04-26T15:34:12.588Z,100564.28
2023-04-26T15:36:39.972Z,100558.00
2023-04-26T15:39:08.464Z,100552.97
2023-04-26T15:41:36.147Z,100546.53
2023-04-26T15:44:03.575Z,100556.06
2023-04-26T15:46:31.397Z,100550.50
2023-04-26T15:48:58.933Z,100547.78
2023-04-26T15:51:26.533Z,100552.88
2023-04-26T15:53:54.086Z,100556.13
2023-04-26T15:56:21.471Z,100542.25
2023-04-26T15:58:48.902Z,100547.97
2023-04-26T16:01:16.549Z,100540.47
2023-04-26T16:03:47.517Z,100538.59
2023-04-26T16:06:16.221Z,100528.09
2023-04-26T16:08:43.654Z,100534.81
2023-04-26T16:11:11.294Z,100531.03
2023-04-26T16:13:38.934Z,100530.44
2023-04-26T16:16:08.452Z,100534.56
2023-04-26T16:18:36.125Z,100531.28
2023-04-26T16:21:09.943Z,100529.63
2023-04-26T16:23:38.286Z,100541.00
2023-04-26T16:26:06.087Z,100549.41
2023-04-26T16:28:33.827Z,100551.63
2023-04-26T16:31:01.432Z,100556.84
2023-04-26T16:33:29.101Z,100557.88
2023-04-26T16:35:56.643Z,100559.50
2023-04-26T16:38:24.305Z,100559.78
2023-04-26T16:40:57.962Z,100559.69
2023-04-26T16:43:27.039Z,100566.63
2023-04-26T16:46:02.427Z,100563.31
2023-04-26T16:48:34.535Z,100562.38
2023-04-26T16:51:06.388Z,100565.44
2023-04-26T16:53:35.041Z,100557.97
2023-04-26T16:56:02.568Z,100567.28
2023-04-26T16:58:30.234Z,100569.84
2023-04-26T17:00:58.362Z,100566.84
2023-04-26T17:03:26.675Z,100572.13
2023-04-26T17:05:54.538Z,100573.06
2023-04-26T17:08:22.102Z,100584.31
2023-04-26T17:10:49.512Z,100583.66
2023-04-26T17:13:17.851Z,100586.38
2023-04-26T17:15:45.424Z,100581.91
2023-04-26T17:18:13.035Z,100569.63
2023-04-26T17:20:41.217Z,100578.28
2023-04-26T17:23:09.132Z,100571.75
2023-04-26T17:25:36.675Z,100576.56
2023-04-26T17:28:04.305Z,100584.28
2023-04-26T17:30:31.791Z,100588.22
2023-04-26T17:32:59.201Z,100579.31
2023-04-26T17:35:26.890Z,100586.41
2023-04-26T17:37:54.307Z,100585.72
2023-04-26T17:40:21.684Z,100586.63
2023-04-26T17:42:49.153Z,100596.84
2023-04-26T17:45:16.683Z,100598.28
2023-04-26T17:47:45.596Z,100592.94
2023-04-26T17:50:13.434Z,100595.13
2023-04-26T17:52:40.926Z,100591.47
2023-04-26T17:55:10.125Z,100585.59
2023-04-26T17:57:37.892Z,100593.75
2023-04-26T18:00:12.796Z,100590.66
2023-04-26T18:02:40.438Z,100585.72
2023-04-26T18:05:08.728Z,100582.34
2023-04-26T18:07:37.582Z,100582.34
2023-04-26T18:10:06.626Z,100578.72
2023-04-26T18:12:34.509Z,100588.63
2023-04-26T18:15:02.008Z,100584.50
2023-04-26T18:17:29.639Z,100575.47
2023-04-26T18:19:57.138Z,100580.50
2023-04-26T18:22:24.626Z,100576.13
2023-04-26T18:24:52.179Z,100582.03
2023-04-26T18:27:19.704Z,100576.13
2023-04-26T18:29:47.950Z,100564.97
2023-04-26T18:32:15.654Z,100570.78
2023-04-26T18:34:44.304Z,100569.06
2023-04-26T18:37:11.784Z,100567.78
2023-04-26T18:39:39.375Z,100573.38
2023-04-26T18:42:07.247Z,100572.78
2023-04-26T18:44:34.939Z,100571.13
2023-04-26T18:47:02.651Z,100569.78
2023-04-26T18:49:30.881Z,100577.69
2023-04-26T18:51:58.371Z,100587.38
2023-04-26T18:54:26.517Z,100584.59
2023-04-26T18:56:54.318Z,100579.72
2023-04-26T18:59:21.752Z,100579.38
2023-04-26T19:01:49.368Z,100574.41
2023-04-26T19:04:17.005Z,100577.72
2023-04-26T19:06:45.036Z,100569.00
2023-04-26T19:09:13.139Z,100568.94
2023-04-26T19:11:40.661Z,100566.84
2023-04-26T19:14:08.571Z,100571.03
2023-04-26T19:16:36.366Z,100569.78
2023-04-26T19:19:03.896Z,100569.00
2023-04-26T19:21:32.326Z,100565.63
2023-04-26T19:23:59.878Z,100563.59
2023-04-26T19:26:27.393Z,100558.59
2023-04-26T19:28:55.987Z,100557.28
2023-04-26T19:31:23.823Z,100556.56
2023-04-26T19:33:51.729Z,100560.69
2023-04-26T19:36:19.184Z,100558.81
2023-04-26T19:38:48.546Z,100558.19
2023-04-26T19:41:16.130Z,100552.78
2023-04-26T19:43:43.583Z,100546.13
2023-04-26T19:46:15.401Z,100546.16
2023-04-26T19:48:43.216Z,100554.88
2023-04-26T19:51:17.640Z,100544.09
2023-04-26T19:53:45.186Z,100549.75
2023-04-26T19:56:12.839Z,100557.06
2023-04-26T19:58:40.268Z,100560.38
2023-04-26T20:01:07.957Z,100562.44
2023-04-26T20:03:35.787Z,100569.94
2023-04-26T20:06:03.411Z,100568.72
2023-04-26T20:08:31.614Z,100562.69
2023-04-26T20:11:03.642Z,100565.41
2023-04-26T20:13:32.048Z,100565.59
2023-04-26T20:15:59.726Z,100553.31
2023-04-26T20:18:27.108Z,100563.09
2023-04-26T20:20:54.466Z,100550.41
2023-04-26T20:23:21.808Z,100550.00
2023-04-26T20:25:50.871Z,100547.06
2023-04-26T20:28:18.721Z,100553.31
2023-04-26T20:30:46.327Z,100554.97
2023-04-26T20:33:13.964Z,100552.50
2023-04-26T20:35:41.470Z,100551.25
2023-04-26T20:38:08.870Z,100553.09
2023-04-26T20:40:36.536Z,100549.56
2023-04-26T20:43:04.350Z,100542.88
2023-04-26T20:45:32.042Z,100546.16
2023-04-26T20:47:59.415Z,100543.66
2023-04-26T20:50:26.822Z,100548.03
2023-04-26T20:52:54.276Z,100545.19
2023-04-26T20:55:22.762Z,100548.53
2023-04-26T20:57:50.224Z,100552.91
2023-04-26T21:00:18.076Z,100540.84
2023-04-26T21:02:45.802Z,100538.31
2023-04-26T21:05:13.239Z,100532.91
2023-04-26T21:07:40.691Z,100532.72
2023-04-26T21:10:08.739Z,100540.44
2023-04-26T21:12:37.365Z,100537.72
2023-04-26T21:15:06.170Z,100526.06
2023-04-26T21:17:35.537Z,100522.94
2023-04-26T21:20:03.150Z,100526.06
2023-04-26T21:22:30.976Z,100516.28
2023-04-26T21:24:58.444Z,100517.34
2023-04-26T21:27:26.088Z,100521.06
2023-04-26T21:29:53.534Z,100525.84
2023-04-26T21:32:21.013Z,100523.38
2023-04-26T21:34:49.186Z,100520.81
2023-04-26T21:37:16.954Z,100526.84
2023-04-26T21:39:44.426Z,100522.13
2023-04-26T21:42:12.136Z,100524.97
2023-04-26T21:44:39.773Z,100533.84
2023-04-26T21:47:07.274Z,100522.38
2023-04-26T21:49:35.094Z,100522.41
2023-04-26T21:52:02.645Z,100526.16
2023-04-26T21:54:31.895Z,100523.72
2023-04-26T21:56:59.384Z,100526.22
2023-04-26T21:59:26.941Z,100517.50
2023-04-26T22:01:57.064Z,100518.94
2023-04-26T22:04:25.058Z,100517.13
2023-04-26T22:06:52.629Z,100517.56
2023-04-26T22:09:21.157Z,100512.16
2023-04-26T22:11:48.730Z,100512.16
2023-04-26T22:14:16.235Z,100516.72
2023-04-26T22:16:43.822Z,100505.06
2023-04-26T22:19:11.448Z,100507.56
2023-04-26T22:21:39.038Z,100504.25
2023-04-26T22:24:07.031Z,100508.00
2023-04-26T22:26:35.052Z,100509.03
2023-04-26T22:29:02.841Z,100508.41
2023-04-26T22:31:30.393Z,100501.56
2023-04-26T22:33:57.828Z,100503.81
2023-04-26T22:36:25.262Z,100492.59
2023-04-26T22:38:52.850Z,100490.50
2023-04-26T22:41:20.321Z,100488.19
2023-04-26T22:43:47.849Z,100492.16
2023-04-26T22:46:15.375Z,100499.66
2023-04-26T22:48:42.927Z,100497.16
2023-04-26T22:51:10.537Z,100506.72
2023-04-26T22:53:38.031Z,100501.72
2023-04-26T22:56:06.168Z,100506.34
2023-04-26T22:58:33.925Z,100505.47
2023-04-26T23:01:01.348Z,100509.22
2023-04-26T23:03:29.244Z,100498.41
2023-04-26T23:05:57.304Z,100505.69
2023-04-26T23:08:24.771Z,100504.84
2023-04-26T23:10:52.266Z,100497.97
2023-04-26T23:13:20.394Z,100506.28
2023-04-26T23:15:47.851Z,100502.16
2023-04-26T23:18:16.437Z,100495.47
2023-04-26T23:20:43.971Z,100493.00
2023-04-26T23:23:11.528Z,100489.22
2023-04-26T23:25:42.235Z,100494.66
2023-04-26T23:28:09.802Z,100491.75
2023-04-26T23:30:37.486Z,100489.03
2023-04-26T23:33:05.274Z,100481.38
2023-04-26T23:35:33.206Z,100483.84
2023-04-26T23:38:00.807Z,100478.84
2023-04-26T23:40:28.345Z,100484.44
2023-04-26T23:42:55.846Z,100477.63
2023-04-26T23:45:24.066Z,100481.78
2023-04-26T23:47:51.502Z,100476.38
2023-04-26T23:50:19.116Z,100483.44
2023-04-26T23:52:46.627Z,100469.94
2023-04-26T23:55:14.167Z,100477.63
2023-04-26T23:57:41.841Z,100482.81
